Buoy 13526

sailwx.info

Track history (hours):
 
Tides and Currents Weather Stations Pressure Air Temp Water Temp Dewpoint Dewpoint Depression Visibility Wind Speed Wind Dir Waves Ship Positions

Drifting buoy 13526

Last reported at 2015-Jan-31 19:53 UTC. Time now 2015-Jan-31 21:07 UTC.
Position N 27°31' W 042°48'.

Water temperature 22.7 ° C

Date/timePositionNaut miles runAvg speedWind from/ knotsBaromVisibWave heightAir tempDewpointWater temp
2015-Jan-31 19:53N 27°31' W 042°48'0 0.0 22.7
2015-Jan-31 19:46N 27°31' W 042°48'0 7.9 22.7
2015-Jan-31 19:45N 27°31' W 042°48'0 0.3 22.7
2015-Jan-31 19:07N 27°31' W 042°48'0 0.4 22.7
2015-Jan-31 18:10N 27°31' W 042°48'0 3.2 22.7
2015-Jan-31 18:05N 27°31' W 042°48'0 1.3 22.7
2015-Jan-31 17:55N 27°31' W 042°48'0 0.1 22.7
2015-Jan-31 16:33N 27°31' W 042°48'0 0.2 22.7
2015-Jan-31 14:51N 27°31' W 042°47'0 0.0 22.5
2015-Jan-31 14:28N 27°31' W 042°47'0 0.0 22.5
2015-Jan-31 13:37N 27°31' W 042°47'0 0.3 22.4
2015-Jan-31 12:51N 27°31' W 042°47'0 0.1 22.4
2015-Jan-31 11:53N 27°31' W 042°47'0 6.4 22.4
2015-Jan-31 11:50N 27°31' W 042°47'0 0.1 22.4
2015-Jan-31 09:30N 27°31' W 042°47'1 1.9 22.3
2015-Jan-31 09:10N 27°30' W 042°47'0 0.2 22.4
2015-Jan-31 08:21N 27°30' W 042°47'0 0.0 22.4
2015-Jan-31 07:49N 27°30' W 042°47'0 0.2 22.4
2015-Jan-31 07:35N 27°30' W 042°47'1 1.6 22.4
2015-Jan-31 06:51N 27°31' W 042°47'2 0.9 22.4
2015-Jan-31 05:09N 27°30' W 042°46'1 0.3 22.4
2015-Jan-31 01:09N 27°30' W 042°48'3 3.6 22.4
2015-Jan-31 00:27N 27°29' W 042°45'0 0.0 22.4
2015-Jan-30 23:24N 27°29' W 042°45'1 0.8 22.4
2015-Jan-30 22:43N 27°29' W 042°45'0 0.0 22.4
2015-Jan-30 22:05N 27°29' W 042°45'1 1.0 22.4
2015-Jan-30 21:09N 27°28' W 042°46'1 0.7 22.4
2015-Jan-30 20:25N 27°29' W 042°45'0 3.0 22.4
2015-Jan-30 20:17N 27°29' W 042°45'1 3.3 22.4
2015-Jan-30 19:56N 27°28' W 042°46'0 0.0 22.5
2015-Jan-30 19:31N 27°28' W 042°46'1 0.6 22.5
2015-Jan-30 18:22N 27°28' W 042°45'118.5 22.5
2015-Jan-30 18:18N 27°27' W 042°44'0 0.0 22.5
2015-Jan-30 16:44N 27°27' W 042°44'0 0.0 22.5
2015-Jan-30 16:40N 27°27' W 042°44'0 0.0 22.5
2015-Jan-30 15:00N 27°27' W 042°44'1 0.8 22.4
2015-Jan-30 13:56N 27°28' W 042°45'1 0.9 22.4
2015-Jan-30 13:10N 27°27' W 042°44'0 0.4 22.4
2015-Jan-30 12:16N 27°27' W 042°44'0 3.2 22.4
2015-Jan-30 12:10N 27°27' W 042°44'0 0.0 22.4
2015-Jan-30 11:30N 27°27' W 042°44'0 0.9 22.4
2015-Jan-30 11:22N 27°27' W 042°44'0 0.0 22.4
2015-Jan-30 09:46N 27°27' W 042°44'0 0.2 22.4
2015-Jan-30 08:34N 27°27' W 042°44'0 2.9 22.4
2015-Jan-30 08:29N 27°26' W 042°44'0 0.0 22.4
2015-Jan-30 08:09N 27°26' W 042°44'0 0.0 22.4
2015-Jan-30 08:07N 27°26' W 042°44'0 0.1 22.4
2015-Jan-30 07:00N 27°26' W 042°44'0 1.8 22.4
2015-Jan-30 06:54N 27°26' W 042°44'112.1 22.4
2015-Jan-30 06:48N 27°26' W 042°42'0 0.0 22.4
2015-Jan-30 06:32N 27°26' W 042°42'0 0.0 22.4
2015-Jan-30 05:20N 27°26' W 042°42'1 6.1 22.4
2015-Jan-30 05:13N 27°25' W 042°42'0 0.0 22.4
2015-Jan-30 03:39N 27°25' W 042°42'0 0.1 22.4
2015-Jan-30 01:29N 27°25' W 042°42'0 0.0 22.4
2015-Jan-30 00:40N 27°25' W 042°42'1 0.7 22.4
2015-Jan-29 23:55N 27°25' W 042°42'0 0.0 22.4
2015-Jan-29 23:51N 27°25' W 042°42'0 0.1 22.4
2015-Jan-29 23:06N 27°25' W 042°42'0 0.2 22.4
2015-Jan-29 22:34N 27°25' W 042°42'1 1.9 22.4
2015-Jan-29 22:09N 27°24' W 042°42'1 1.9 22.4
2015-Jan-29 21:33N 27°24' W 042°41'1 1.8 22.4
2015-Jan-29 20:56N 27°24' W 042°42'1 7.5 22.4
2015-Jan-29 20:47N 27°24' W 042°41'0 0.7 22.4
2015-Jan-29 20:10N 27°24' W 042°40'1 3.1 22.4
2015-Jan-29 19:51N 27°24' W 042°41'1 0.4 22.4
2015-Jan-29 18:29N 27°24' W 042°41'1 3.8 22.5
2015-Jan-29 18:09N 27°23' W 042°40'0 0.1 22.5
2015-Jan-29 16:55N 27°23' W 042°40'1 0.4 22.5
2015-Jan-29 15:11N 27°22' W 042°39'0 0.0
2015-Jan-29 15:09N 27°22' W 042°39'0 0.0 22.4
2015-Jan-29 14:17N 27°22' W 042°39'0 0.1 22.4
2015-Jan-29 13:28N 27°22' W 042°39'0 0.1 22.4
2015-Jan-29 12:33N 27°22' W 042°39'0 0.0 22.4
2015-Jan-29 12:28N 27°22' W 042°39'1 0.3 22.4
2015-Jan-29 10:18N 27°22' W 042°39'0 0.0 22.4
2015-Jan-29 10:15N 27°22' W 042°39'0 0.0 22.4
2015-Jan-29 08:46N 27°22' W 042°39'0 0.0 22.4
2015-Jan-29 08:38N 27°22' W 042°39'0 0.3 22.4
2015-Jan-29 07:09N 27°22' W 042°39'0 0.0 22.4
2015-Jan-29 07:06N 27°22' W 042°39'1 0.6 22.4
2015-Jan-29 05:31N 27°22' W 042°38'0 1.1 22.4
2015-Jan-29 05:24N 27°22' W 042°38'2 1.3 22.4
2015-Jan-29 03:50N 27°21' W 042°36'0 0.0 22.4
2015-Jan-29 01:50N 27°21' W 042°36'0 0.0 22.5
2015-Jan-29 01:04N 27°21' W 042°36'0 9.6 22.4
2015-Jan-29 01:01N 27°20' W 042°36'0 0.0 22.4
2015-Jan-29 00:15N 27°20' W 042°36'0 0.0 22.4
2015-Jan-29 00:09N 27°20' W 042°36'1 1.9 22.4
2015-Jan-28 23:23N 27°19' W 042°35'0 0.0 22.4
2015-Jan-28 23:03N 27°19' W 042°35'0 0.1 22.5
2015-Jan-28 21:27N 27°19' W 042°35'0 0.4 22.4
2015-Jan-28 20:19N 27°19' W 042°35'0 0.0 22.5
2015-Jan-28 18:33N 27°19' W 042°35'1 0.8 22.5
2015-Jan-28 17:06N 27°18' W 042°34'0 0.3 22.5
2015-Jan-28 15:25N 27°18' W 042°34'1 1.3 22.5
2015-Jan-28 14:36N 27°18' W 042°33'0 0.3 22.5
2015-Jan-28 13:51N 27°18' W 042°33'0 3.4 22.5
2015-Jan-28 13:44N 27°17' W 042°33'0 0.0 22.5
2015-Jan-28 12:52N 27°17' W 042°33'0 0.9 22.5
2015-Jan-28 12:48N 27°17' W 042°33'0 0.1 22.5
2015-Jan-28 12:10N 27°17' W 042°33'1 0.8 22.5
2015-Jan-28 11:15N 27°17' W 042°33'0 2.4 22.5
2015-Jan-28 11:10N 27°17' W 042°32'0 0.0 22.5
2015-Jan-28 09:08N 27°17' W 042°32'0 1.7 22.5
2015-Jan-28 08:55N 27°17' W 042°32'0 4.8 22.5
2015-Jan-28 08:51N 27°17' W 042°32'0 0.0 22.5
2015-Jan-28 07:25N 27°17' W 042°32'0 3.2 22.5
2015-Jan-28 07:19N 27°16' W 042°32'0 1.1 22.5
2015-Jan-28 07:10N 27°16' W 042°32'0 0.0 22.5
2015-Jan-28 05:42N 27°16' W 042°32'1 7.7 22.5
2015-Jan-28 05:36N 27°16' W 042°31'0 0.2 22.5
2015-Jan-28 04:03N 27°16' W 042°31'1 6.8 22.5
2015-Jan-28 03:55N 27°15' W 042°31'0 0.0 22.5
2015-Jan-28 01:26N 27°15' W 042°31'0 0.0 22.5
2015-Jan-28 00:32N 27°15' W 042°31'1 0.4 22.5
2015-Jan-27 22:56N 27°15' W 042°32'1 5.8 22.5
2015-Jan-27 22:50N 27°14' W 042°31'0 0.0 22.5
2015-Jan-27 21:56N 27°14' W 042°31'1 0.4 22.5
2015-Jan-27 20:32N 27°14' W 042°31'1 2.8 22.5
2015-Jan-27 20:19N 27°14' W 042°31'1 7.9 22.5
2015-Jan-27 20:12N 27°13' W 042°31'0 0.2 22.5
2015-Jan-27 19:04N 27°13' W 042°31'0 1.5 22.5
2015-Jan-27 18:52N 27°14' W 042°31'1 0.7 22.5
2015-Jan-27 17:19N 27°13' W 042°31'0 0.0 22.5
2015-Jan-27 15:37N 27°13' W 042°31'1 0.9 22.5
2015-Jan-27 14:10N 27°12' W 042°29'0 0.0 22.5
2015-Jan-27 12:35N 27°12' W 042°29'0 1.4 22.5
2015-Jan-27 12:23N 27°12' W 042°29'0 0.1 22.5
2015-Jan-27 11:35N 27°12' W 042°29'0 0.0 22.5
2015-Jan-27 09:40N 27°12' W 042°29'1 2.9 22.5
2015-Jan-27 09:23N 27°12' W 042°28'1 2.0 22.5
2015-Jan-27 09:06N 27°11' W 042°29'0 0.0 22.5
2015-Jan-27 09:03N 27°11' W 042°29'0 0.0 22.5
2015-Jan-27 07:56N 27°11' W 042°29'0 0.8 22.5
2015-Jan-27 07:47N 27°11' W 042°28'0 0.0 22.5
2015-Jan-27 07:30N 27°11' W 042°28'1 4.2 22.5
2015-Jan-27 07:22N 27°11' W 042°29'0 0.0 22.5
2015-Jan-27 05:55N 27°11' W 042°29'115.8 22.5
2015-Jan-27 05:50N 27°11' W 042°27'1 0.9 22.5
2015-Jan-27 04:09N 27°12' W 042°29'116.8 22.5
2015-Jan-27 04:06N 27°11' W 042°29'0 0.0 22.5
2015-Jan-27 00:56N 27°11' W 042°29'1 1.7 22.5
2015-Jan-27 00:10N 27°10' W 042°28'0 0.0 22.5
2015-Jan-26 23:16N 27°10' W 042°28'1 9.9 22.5
2015-Jan-26 23:10N 27°10' W 042°29'0 0.0 22.5
2015-Jan-26 22:29N 27°10' W 042°29'1 4.0 22.6
2015-Jan-26 22:21N 27°10' W 042°29'1 0.6 22.6
2015-Jan-26 21:09N 27°09' W 042°29'0 0.0 22.6
2015-Jan-26 20:41N 27°09' W 042°29'0 0.0
2015-Jan-26 20:40N 27°09' W 042°29'0 0.0 22.6
2015-Jan-26 19:31N 27°09' W 042°29'0 4.3 22.6
2015-Jan-26 19:26N 27°09' W 042°29'0 0.0 22.6
2015-Jan-26 19:03N 27°09' W 042°29'1 0.4 22.6
2015-Jan-26 17:28N 27°09' W 042°30'220.1 22.6
2015-Jan-26 17:23N 27°08' W 042°28'0 0.0 22.6
2015-Jan-26 17:19N 27°08' W 042°28'0 0.0 22.6
2015-Jan-26 15:48N 27°08' W 042°28'1 3.7 22.7
2015-Jan-26 15:36N 27°09' W 042°27'0 0.3 22.7
2015-Jan-26 13:40N 27°08' W 042°27'0 0.0 22.6
2015-Jan-26 12:55N 27°08' W 042°27'0 0.0 22.6
2015-Jan-26 12:49N 27°08' W 042°27'0 0.1 22.6
2015-Jan-26 11:55N 27°08' W 042°27'0 5.4 22.5
2015-Jan-26 11:51N 27°09' W 042°27'0 0.0 22.5
2015-Jan-26 11:06N 27°09' W 042°27'0 0.0 22.5
2015-Jan-26 10:09N 27°09' W 042°27'1 2.0 22.5
2015-Jan-26 09:54N 27°08' W 042°27'0 4.8 22.5
2015-Jan-26 09:48N 27°09' W 042°26'0 0.0 22.5
2015-Jan-26 09:20N 27°09' W 042°26'0 0.0 22.5
2015-Jan-26 08:33N 27°09' W 042°26'1 5.8 22.5
2015-Jan-26 08:21N 27°08' W 042°25'0 0.0 22.5
2015-Jan-26 08:10N 27°08' W 042°25'0 0.0 22.5
2015-Jan-26 07:35N 27°08' W 042°25'0 0.0 22.5
2015-Jan-26 06:49N 27°08' W 042°25'0 0.0 22.5
2015-Jan-26 06:32N 27°08' W 042°25'0 0.0 22.5
2015-Jan-26 06:07N 27°08' W 042°25'0 0.0 22.5
2015-Jan-26 06:03N 27°08' W 042°25'117.7 22.5
2015-Jan-26 05:58N 27°09' W 042°27'0 0.0 22.5
2015-Jan-26 04:24N 27°09' W 042°27'117.4 22.5
2015-Jan-26 04:20N 27°08' W 042°28'123.6 22.5
2015-Jan-26 04:17N 27°08' W 042°27'0 0.0 22.5
2015-Jan-26 01:17N 27°08' W 042°27'0 2.1 22.5
2015-Jan-26 01:08N 27°08' W 042°27'0 0.5 22.5
2015-Jan-26 00:30N 27°07' W 042°27'0 0.0 22.5
2015-Jan-25 23:38N 27°07' W 042°27'0 0.0 22.5
2015-Jan-25 23:33N 27°07' W 042°27'1 0.3 22.5
2015-Jan-25 21:30N 27°07' W 042°27'0 0.8 22.5
2015-Jan-25 20:54N 27°06' W 042°27'1 1.5 22.5
2015-Jan-25 19:55N 27°05' W 042°25'0 0.0 22.6
2015-Jan-25 19:09N 27°05' W 042°25'0 0.0 22.6
2015-Jan-25 17:39N 27°05' W 042°25'1 7.1 22.6
2015-Jan-25 17:33N 27°05' W 042°25'0 0.0 22.6
2015-Jan-25 15:56N 27°05' W 042°25'1 0.5 22.6
2015-Jan-25 14:01N 27°05' W 042°24'1 0.3 22.6
2015-Jan-25 12:18N 27°05' W 042°24'115.4 22.5
2015-Jan-25 12:15N 27°05' W 042°23'0 0.0 22.5
2015-Jan-25 12:12N 27°05' W 042°23'0 0.0 22.5
2015-Jan-25 11:28N 27°05' W 042°23'117.0
2015-Jan-25 11:26N 27°05' W 042°22'0 0.0 22.5
2015-Jan-25 10:17N 27°05' W 042°22'1 0.7 22.5
2015-Jan-25 09:30N 27°05' W 042°22'0 0.0 22.5
2015-Jan-25 09:27N 27°05' W 042°22'1 1.4 22.5
2015-Jan-25 09:04N 27°05' W 042°22'1 1.0 22.5
2015-Jan-25 08:32N 27°05' W 042°22'0 0.0 22.5
2015-Jan-25 07:47N 27°05' W 042°22'0 0.0 22.5
2015-Jan-25 07:23N 27°05' W 042°22'0 0.0 22.5
2015-Jan-25 06:55N 27°05' W 042°22'0 0.3 22.5
2015-Jan-25 06:18N 27°05' W 042°22'0 0.7 22.4
2015-Jan-25 06:09N 27°05' W 042°22'0 0.0 22.4
2015-Jan-25 06:07N 27°05' W 042°22'1 0.4 22.4
2015-Jan-25 04:35N 27°04' W 042°22'0 0.0 22.5
2015-Jan-25 01:33N 27°04' W 042°22'0 0.6 22.5
2015-Jan-25 00:50N 27°04' W 042°22'1 1.0 22.5
2015-Jan-24 23:55N 27°04' W 042°23'1 0.7 22.5
2015-Jan-24 23:09N 27°04' W 042°23'0 0.0 22.5
2015-Jan-24 22:15N 27°04' W 042°23'0 0.0 22.5
2015-Jan-24 22:12N 27°04' W 042°23'0 0.0 22.5
2015-Jan-24 21:54N 27°04' W 042°23'0 0.4 22.5
2015-Jan-24 21:03N 27°03' W 042°23'0 0.2 22.5
2015-Jan-24 20:19N 27°03' W 042°23'0 4.8 22.5
2015-Jan-24 20:16N 27°03' W 042°23'0 0.9 22.5
2015-Jan-24 20:08N 27°03' W 042°23'0 3.7 22.6
2015-Jan-24 20:06N 27°03' W 042°23'0 0.1 22.6
2015-Jan-24 19:26N 27°03' W 042°23'1 9.9 22.6
2015-Jan-24 19:20N 27°03' W 042°24'0 0.0 22.6
2015-Jan-24 18:39N 27°03' W 042°24'1 1.4 22.6
2015-Jan-24 17:48N 27°02' W 042°24'0 0.0 22.6
2015-Jan-24 17:41N 27°02' W 042°24'0 0.0 22.6
2015-Jan-24 16:09N 27°02' W 042°24'0 2.1 22.6
2015-Jan-24 15:58N 27°01' W 042°23'0 0.0 22.6
2015-Jan-24 14:20N 27°01' W 042°23'0 0.0 22.6
2015-Jan-24 13:31N 27°01' W 042°23'0 0.2 22.6
2015-Jan-24 12:37N 27°01' W 042°23'0 0.5 22.5
2015-Jan-24 12:31N 27°01' W 042°23'1 0.9 22.5
2015-Jan-24 11:46N 27°00' W 042°24'1 0.7 22.6
2015-Jan-24 10:53N 27°00' W 042°23'0 0.3
2015-Jan-24 09:41N 27°00' W 042°23'0 3.0 22.5
2015-Jan-24 09:33N 27°00' W 042°23'0 0.9 22.5
2015-Jan-24 09:05N 27°00' W 042°23'0 0.0 22.5
2015-Jan-24 09:02N 27°00' W 042°23'0 7.4 22.5
2015-Jan-24 08:59N 27°01' W 042°23'1 0.7 22.5
2015-Jan-24 08:00N 27°00' W 042°23'0 0.0 22.5
2015-Jan-24 07:55N 27°00' W 042°23'0 0.0 22.5
2015-Jan-24 07:21N 27°00' W 042°23'1 0.8 22.5
2015-Jan-24 06:26N 27°01' W 042°23'2 1.1 22.5
2015-Jan-24 04:46N 26°60' W 042°25'1 0.4 22.5
2015-Jan-24 01:53N 27°00' W 042°24'0 0.0 22.6
2015-Jan-24 01:09N 27°00' W 042°24'128.7 22.6
2015-Jan-24 01:07N 26°59' W 042°24'0 0.0 22.6
2015-Jan-24 00:20N 26°59' W 042°24'1 0.6 22.6
2015-Jan-23 23:30N 26°59' W 042°25'113.2 22.6
2015-Jan-23 23:26N 26°58' W 042°24'0 0.0 22.6
2015-Jan-23 22:37N 26°58' W 042°24'0 0.0 22.6
2015-Jan-23 22:34N 26°58' W 042°24'0 9.0 22.6
2015-Jan-23 22:31N 26°58' W 042°25'0 4.5 22.6
2015-Jan-23 22:25N 26°58' W 042°24'0 0.3 22.6
2015-Jan-23 20:46N 26°58' W 042°25'1 7.7 22.6
2015-Jan-23 20:40N 26°58' W 042°25'0 0.0 22.6
2015-Jan-23 20:36N 26°58' W 042°25'0 0.0 22.6
2015-Jan-23 19:37N 26°58' W 042°25'0 0.0 22.6
2015-Jan-23 19:34N 26°58' W 042°25'0 0.5 22.6
2015-Jan-23 19:04N 26°58' W 042°25'1 5.5 22.6
2015-Jan-23 18:56N 26°57' W 042°25'1 0.9 22.6
2015-Jan-23 17:59N 26°58' W 042°25'0 0.9 22.6
2015-Jan-23 17:55N 26°58' W 042°25'1 0.4 22.6
2015-Jan-23 16:21N 26°57' W 042°26'1 0.4 22.6
2015-Jan-23 14:37N 26°56' W 042°25'0 0.1 22.6
2015-Jan-23 13:54N 26°57' W 042°25'0 0.2 22.6
2015-Jan-23 13:03N 26°57' W 042°25'0 0.9 22.6
2015-Jan-23 12:56N 26°57' W 042°25'0 0.1 22.6
2015-Jan-23 12:10N 26°57' W 042°25'0 3.2 22.6
2015-Jan-23 12:07N 26°56' W 042°25'0 0.0 22.6
2015-Jan-23 11:21N 26°56' W 042°25'0 0.0 22.6
2015-Jan-23 10:04N 26°56' W 042°25'1 1.0 22.6
2015-Jan-23 09:24N 26°57' W 042°24'0 0.3 22.6
2015-Jan-23 08:09N 26°56' W 042°24'0 0.0 22.6
2015-Jan-23 08:04N 26°56' W 042°24'0 0.0 22.6
2015-Jan-23 07:46N 26°56' W 042°24'0 0.0 22.6
2015-Jan-23 06:45N 26°56' W 042°24'0 0.0 22.6
2015-Jan-23 06:40N 26°56' W 042°24'0 4.6 22.6
2015-Jan-23 06:34N 26°56' W 042°25'0 0.1 22.6
2015-Jan-23 04:56N 26°56' W 042°25'0 0.1 22.6
2015-Jan-23 01:29N 26°56' W 042°25'0 0.1 22.6
2015-Jan-23 00:38N 26°56' W 042°25'1 0.7 22.6
2015-Jan-22 23:49N 26°56' W 042°26'1 0.9 22.6
2015-Jan-22 22:54N 26°55' W 042°25'0 0.0 22.6
2015-Jan-22 21:08N 26°55' W 042°25'0 0.0 22.6
2015-Jan-22 19:48N 26°55' W 042°25'0 1.8 22.6
2015-Jan-22 19:33N 26°54' W 042°25'0 0.0 22.6
2015-Jan-22 19:28N 26°54' W 042°25'0 2.8 22.6
2015-Jan-22 19:21N 26°54' W 042°25'0 0.0 22.6
2015-Jan-22 18:10N 26°54' W 042°25'0 0.0 22.6
2015-Jan-22 18:07N 26°54' W 042°25'1 0.9 22.6
2015-Jan-22 16:34N 26°53' W 042°25'1 0.4 22.6
2015-Jan-22 14:49N 26°53' W 042°24'0 0.0 22.6
2015-Jan-22 12:33N 26°53' W 042°24'0 0.5 22.6
2015-Jan-22 11:39N 26°53' W 042°25'112.2 22.6
2015-Jan-22 11:35N 26°53' W 042°24'0 0.0 22.6
2015-Jan-22 09:49N 26°53' W 042°24'1 0.4 22.6
2015-Jan-22 08:23N 26°53' W 042°23'0 4.5 22.6
2015-Jan-22 08:18N 26°52' W 042°23'0 0.0 22.6
2015-Jan-22 08:08N 26°52' W 042°23'0 0.0 22.6
2015-Jan-22 07:17N 26°52' W 042°23'1 1.3 22.6
2015-Jan-22 06:51N 26°53' W 042°23'312.5 22.6
2015-Jan-22 06:39N 26°53' W 042°26'0 0.0 22.6
2015-Jan-22 05:08N 26°53' W 042°26'328.1 22.6
2015-Jan-22 05:02N 26°52' W 042°23'0 0.0 22.6
2015-Jan-22 03:29N 26°52' W 042°23'0 0.0 22.6
2015-Jan-22 00:55N 26°52' W 042°23'1 0.9 22.6
2015-Jan-22 00:12N 26°52' W 042°23'0 1.1 22.6
2015-Jan-22 00:09N 26°52' W 042°23'1 0.7 22.6
2015-Jan-21 23:20N 26°53' W 042°23'1 6.9 22.6
2015-Jan-21 23:14N 26°53' W 042°22'112.7 22.6
2015-Jan-21 23:09N 26°52' W 042°22'0 0.0 22.6
2015-Jan-21 21:48N 26°52' W 042°22'0 0.3 22.6
2015-Jan-21 19:59N 26°52' W 042°21'0 0.0 22.6
2015-Jan-21 19:55N 26°52' W 042°21'   22.6
Track history (hours):
 
Tides and Currents Weather Stations Pressure Air Temp Water Temp Dewpoint Dewpoint Depression Visibility Wind Speed Wind Dir Waves Ship Positions

Drifting buoy 13526

Last reported at 2015-Jan-31 19:53 UTC. Time now 2015-Jan-31 21:07 UTC.
Position N 27°31' W 042°48'.

Water temperature 22.7 ° C

Date/timePositionNaut miles runAvg speedWind from/ knotsBaromVisibWave heightAir tempDewpointWater temp
2015-Jan-31 19:53N 27°31' W 042°48'0 0.0 22.7
2015-Jan-31 19:46N 27°31' W 042°48'0 7.9 22.7
2015-Jan-31 19:45N 27°31' W 042°48'0 0.3 22.7
2015-Jan-31 19:07N 27°31' W 042°48'0 0.4 22.7
2015-Jan-31 18:10N 27°31' W 042°48'0 3.2 22.7
2015-Jan-31 18:05N 27°31' W 042°48'0 1.3 22.7
2015-Jan-31 17:55N 27°31' W 042°48'0 0.1 22.7
2015-Jan-31 16:33N 27°31' W 042°48'0 0.2 22.7
2015-Jan-31 14:51N 27°31' W 042°47'0 0.0 22.5
2015-Jan-31 14:28N 27°31' W 042°47'0 0.0 22.5
2015-Jan-31 13:37N 27°31' W 042°47'0 0.3 22.4
2015-Jan-31 12:51N 27°31' W 042°47'0 0.1 22.4
2015-Jan-31 11:53N 27°31' W 042°47'0 6.4 22.4
2015-Jan-31 11:50N 27°31' W 042°47'0 0.1 22.4
2015-Jan-31 09:30N 27°31' W 042°47'1 1.9 22.3
2015-Jan-31 09:10N 27°30' W 042°47'0 0.2 22.4
2015-Jan-31 08:21N 27°30' W 042°47'0 0.0 22.4
2015-Jan-31 07:49N 27°30' W 042°47'0 0.2 22.4
2015-Jan-31 07:35N 27°30' W 042°47'1 1.6 22.4
2015-Jan-31 06:51N 27°31' W 042°47'2 0.9 22.4
2015-Jan-31 05:09N 27°30' W 042°46'1 0.3 22.4
2015-Jan-31 01:09N 27°30' W 042°48'3 3.6 22.4
2015-Jan-31 00:27N 27°29' W 042°45'0 0.0 22.4
2015-Jan-30 23:24N 27°29' W 042°45'1 0.8 22.4
2015-Jan-30 22:43N 27°29' W 042°45'0 0.0 22.4
2015-Jan-30 22:05N 27°29' W 042°45'1 1.0 22.4
2015-Jan-30 21:09N 27°28' W 042°46'1 0.7 22.4
2015-Jan-30 20:25N 27°29' W 042°45'0 3.0 22.4
2015-Jan-30 20:17N 27°29' W 042°45'1 3.3 22.4
2015-Jan-30 19:56N 27°28' W 042°46'0 0.0 22.5
2015-Jan-30 19:31N 27°28' W 042°46'1 0.6 22.5
2015-Jan-30 18:22N 27°28' W 042°45'118.5 22.5
2015-Jan-30 18:18N 27°27' W 042°44'0 0.0 22.5
2015-Jan-30 16:44N 27°27' W 042°44'0 0.0 22.5
2015-Jan-30 16:40N 27°27' W 042°44'0 0.0 22.5
2015-Jan-30 15:00N 27°27' W 042°44'1 0.8 22.4
2015-Jan-30 13:56N 27°28' W 042°45'1 0.9 22.4
2015-Jan-30 13:10N 27°27' W 042°44'0 0.4 22.4
2015-Jan-30 12:16N 27°27' W 042°44'0 3.2 22.4
2015-Jan-30 12:10N 27°27' W 042°44'0 0.0 22.4
2015-Jan-30 11:30N 27°27' W 042°44'0 0.9 22.4
2015-Jan-30 11:22N 27°27' W 042°44'0 0.0 22.4
2015-Jan-30 09:46N 27°27' W 042°44'0 0.2 22.4
2015-Jan-30 08:34N 27°27' W 042°44'0 2.9 22.4
2015-Jan-30 08:29N 27°26' W 042°44'0 0.0 22.4
2015-Jan-30 08:09N 27°26' W 042°44'0 0.0 22.4
2015-Jan-30 08:07N 27°26' W 042°44'0 0.1 22.4
2015-Jan-30 07:00N 27°26' W 042°44'0 1.8 22.4
2015-Jan-30 06:54N 27°26' W 042°44'112.1 22.4
2015-Jan-30 06:48N 27°26' W 042°42'0 0.0 22.4
2015-Jan-30 06:32N 27°26' W 042°42'0 0.0 22.4
2015-Jan-30 05:20N 27°26' W 042°42'1 6.1 22.4
2015-Jan-30 05:13N 27°25' W 042°42'0 0.0 22.4
2015-Jan-30 03:39N 27°25' W 042°42'0 0.1 22.4
2015-Jan-30 01:29N 27°25' W 042°42'0 0.0 22.4
2015-Jan-30 00:40N 27°25' W 042°42'1 0.7 22.4
2015-Jan-29 23:55N 27°25' W 042°42'0 0.0 22.4
2015-Jan-29 23:51N 27°25' W 042°42'0 0.1 22.4
2015-Jan-29 23:06N 27°25' W 042°42'0 0.2 22.4
2015-Jan-29 22:34N 27°25' W 042°42'1 1.9 22.4
2015-Jan-29 22:09N 27°24' W 042°42'1 1.9 22.4
2015-Jan-29 21:33N 27°24' W 042°41'1 1.8 22.4
2015-Jan-29 20:56N 27°24' W 042°42'1 7.5 22.4
2015-Jan-29 20:47N 27°24' W 042°41'0 0.7 22.4
2015-Jan-29 20:10N 27°24' W 042°40'1 3.1 22.4
2015-Jan-29 19:51N 27°24' W 042°41'1 0.4 22.4
2015-Jan-29 18:29N 27°24' W 042°41'1 3.8 22.5
2015-Jan-29 18:09N 27°23' W 042°40'0 0.1 22.5
2015-Jan-29 16:55N 27°23' W 042°40'1 0.4 22.5
2015-Jan-29 15:11N 27°22' W 042°39'0 0.0
2015-Jan-29 15:09N 27°22' W 042°39'0 0.0 22.4
2015-Jan-29 14:17N 27°22' W 042°39'0 0.1 22.4
2015-Jan-29 13:28N 27°22' W 042°39'0 0.1 22.4
2015-Jan-29 12:33N 27°22' W 042°39'0 0.0 22.4
2015-Jan-29 12:28N 27°22' W 042°39'1 0.3 22.4
2015-Jan-29 10:18N 27°22' W 042°39'0 0.0 22.4
2015-Jan-29 10:15N 27°22' W 042°39'0 0.0 22.4
2015-Jan-29 08:46N 27°22' W 042°39'0 0.0 22.4
2015-Jan-29 08:38N 27°22' W 042°39'0 0.3 22.4
2015-Jan-29 07:09N 27°22' W 042°39'0 0.0 22.4
2015-Jan-29 07:06N 27°22' W 042°39'1 0.6 22.4
2015-Jan-29 05:31N 27°22' W 042°38'0 1.1 22.4
2015-Jan-29 05:24N 27°22' W 042°38'2 1.3 22.4
2015-Jan-29 03:50N 27°21' W 042°36'0 0.0 22.4
2015-Jan-29 01:50N 27°21' W 042°36'0 0.0 22.5
2015-Jan-29 01:04N 27°21' W 042°36'0 9.6 22.4
2015-Jan-29 01:01N 27°20' W 042°36'0 0.0 22.4
2015-Jan-29 00:15N 27°20' W 042°36'0 0.0 22.4
2015-Jan-29 00:09N 27°20' W 042°36'1 1.9 22.4
2015-Jan-28 23:23N 27°19' W 042°35'0 0.0 22.4
2015-Jan-28 23:03N 27°19' W 042°35'0 0.1 22.5
2015-Jan-28 21:27N 27°19' W 042°35'0 0.4 22.4
2015-Jan-28 20:19N 27°19' W 042°35'0 0.0 22.5
2015-Jan-28 18:33N 27°19' W 042°35'1 0.8 22.5
2015-Jan-28 17:06N 27°18' W 042°34'0 0.3 22.5
2015-Jan-28 15:25N 27°18' W 042°34'1 1.3 22.5
2015-Jan-28 14:36N 27°18' W 042°33'0 0.3 22.5
2015-Jan-28 13:51N 27°18' W 042°33'0 3.4 22.5
2015-Jan-28 13:44N 27°17' W 042°33'0 0.0 22.5
2015-Jan-28 12:52N 27°17' W 042°33'0 0.9 22.5
2015-Jan-28 12:48N 27°17' W 042°33'0 0.1 22.5
2015-Jan-28 12:10N 27°17' W 042°33'1 0.8 22.5
2015-Jan-28 11:15N 27°17' W 042°33'0 2.4 22.5
2015-Jan-28 11:10N 27°17' W 042°32'0 0.0 22.5
2015-Jan-28 09:08N 27°17' W 042°32'0 1.7 22.5
2015-Jan-28 08:55N 27°17' W 042°32'0 4.8 22.5
2015-Jan-28 08:51N 27°17' W 042°32'0 0.0 22.5
2015-Jan-28 07:25N 27°17' W 042°32'0 3.2 22.5
2015-Jan-28 07:19N 27°16' W 042°32'0 1.1 22.5
2015-Jan-28 07:10N 27°16' W 042°32'0 0.0 22.5
2015-Jan-28 05:42N 27°16' W 042°32'1 7.7 22.5
2015-Jan-28 05:36N 27°16' W 042°31'0 0.2 22.5
2015-Jan-28 04:03N 27°16' W 042°31'1 6.8 22.5
2015-Jan-28 03:55N 27°15' W 042°31'0 0.0 22.5
2015-Jan-28 01:26N 27°15' W 042°31'0 0.0 22.5
2015-Jan-28 00:32N 27°15' W 042°31'1 0.4 22.5
2015-Jan-27 22:56N 27°15' W 042°32'1 5.8 22.5
2015-Jan-27 22:50N 27°14' W 042°31'0 0.0 22.5
2015-Jan-27 21:56N 27°14' W 042°31'1 0.4 22.5
2015-Jan-27 20:32N 27°14' W 042°31'1 2.8 22.5
2015-Jan-27 20:19N 27°14' W 042°31'1 7.9 22.5
2015-Jan-27 20:12N 27°13' W 042°31'0 0.2 22.5
2015-Jan-27 19:04N 27°13' W 042°31'0 1.5 22.5
2015-Jan-27 18:52N 27°14' W 042°31'1 0.7 22.5
2015-Jan-27 17:19N 27°13' W 042°31'0 0.0 22.5
2015-Jan-27 15:37N 27°13' W 042°31'1 0.9 22.5
2015-Jan-27 14:10N 27°12' W 042°29'0 0.0 22.5
2015-Jan-27 12:35N 27°12' W 042°29'0 1.4 22.5
2015-Jan-27 12:23N 27°12' W 042°29'0 0.1 22.5
2015-Jan-27 11:35N 27°12' W 042°29'0 0.0 22.5
2015-Jan-27 09:40N 27°12' W 042°29'1 2.9 22.5
2015-Jan-27 09:23N 27°12' W 042°28'1 2.0 22.5
2015-Jan-27 09:06N 27°11' W 042°29'0 0.0 22.5
2015-Jan-27 09:03N 27°11' W 042°29'0 0.0 22.5
2015-Jan-27 07:56N 27°11' W 042°29'0 0.8 22.5
2015-Jan-27 07:47N 27°11' W 042°28'0 0.0 22.5
2015-Jan-27 07:30N 27°11' W 042°28'1 4.2 22.5
2015-Jan-27 07:22N 27°11' W 042°29'0 0.0 22.5
2015-Jan-27 05:55N 27°11' W 042°29'115.8 22.5
2015-Jan-27 05:50N 27°11' W 042°27'1 0.9 22.5
2015-Jan-27 04:09N 27°12' W 042°29'116.8 22.5
2015-Jan-27 04:06N 27°11' W 042°29'0 0.0 22.5
2015-Jan-27 00:56N 27°11' W 042°29'1 1.7 22.5
2015-Jan-27 00:10N 27°10' W 042°28'0 0.0 22.5
2015-Jan-26 23:16N 27°10' W 042°28'1 9.9 22.5
2015-Jan-26 23:10N 27°10' W 042°29'0 0.0 22.5
2015-Jan-26 22:29N 27°10' W 042°29'1 4.0 22.6
2015-Jan-26 22:21N 27°10' W 042°29'1 0.6 22.6
2015-Jan-26 21:09N 27°09' W 042°29'0 0.0 22.6
2015-Jan-26 20:41N 27°09' W 042°29'0 0.0
2015-Jan-26 20:40N 27°09' W 042°29'0 0.0 22.6
2015-Jan-26 19:31N 27°09' W 042°29'0 4.3 22.6
2015-Jan-26 19:26N 27°09' W 042°29'0 0.0 22.6
2015-Jan-26 19:03N 27°09' W 042°29'1 0.4 22.6
2015-Jan-26 17:28N 27°09' W 042°30'220.1 22.6
2015-Jan-26 17:23N 27°08' W 042°28'0 0.0 22.6
2015-Jan-26 17:19N 27°08' W 042°28'0 0.0 22.6
2015-Jan-26 15:48N 27°08' W 042°28'1 3.7 22.7
2015-Jan-26 15:36N 27°09' W 042°27'0 0.3 22.7
2015-Jan-26 13:40N 27°08' W 042°27'0 0.0 22.6
2015-Jan-26 12:55N 27°08' W 042°27'0 0.0 22.6
2015-Jan-26 12:49N 27°08' W 042°27'0 0.1 22.6
2015-Jan-26 11:55N 27°08' W 042°27'0 5.4 22.5
2015-Jan-26 11:51N 27°09' W 042°27'0 0.0 22.5
2015-Jan-26 11:06N 27°09' W 042°27'0 0.0 22.5
2015-Jan-26 10:09N 27°09' W 042°27'1 2.0 22.5
2015-Jan-26 09:54N 27°08' W 042°27'0 4.8 22.5
2015-Jan-26 09:48N 27°09' W 042°26'0 0.0 22.5
2015-Jan-26 09:20N 27°09' W 042°26'0 0.0 22.5
2015-Jan-26 08:33N 27°09' W 042°26'1 5.8 22.5
2015-Jan-26 08:21N 27°08' W 042°25'0 0.0 22.5
2015-Jan-26 08:10N 27°08' W 042°25'0 0.0 22.5
2015-Jan-26 07:35N 27°08' W 042°25'0 0.0 22.5
2015-Jan-26 06:49N 27°08' W 042°25'0 0.0 22.5
2015-Jan-26 06:32N 27°08' W 042°25'0 0.0 22.5
2015-Jan-26 06:07N 27°08' W 042°25'0 0.0 22.5
2015-Jan-26 06:03N 27°08' W 042°25'117.7 22.5
2015-Jan-26 05:58N 27°09' W 042°27'0 0.0 22.5
2015-Jan-26 04:24N 27°09' W 042°27'117.4 22.5
2015-Jan-26 04:20N 27°08' W 042°28'123.6 22.5
2015-Jan-26 04:17N 27°08' W 042°27'0 0.0 22.5
2015-Jan-26 01:17N 27°08' W 042°27'0 2.1 22.5
2015-Jan-26 01:08N 27°08' W 042°27'0 0.5 22.5
2015-Jan-26 00:30N 27°07' W 042°27'0 0.0 22.5
2015-Jan-25 23:38N 27°07' W 042°27'0 0.0 22.5
2015-Jan-25 23:33N 27°07' W 042°27'1 0.3 22.5
2015-Jan-25 21:30N 27°07' W 042°27'0 0.8 22.5
2015-Jan-25 20:54N 27°06' W 042°27'1 1.5 22.5
2015-Jan-25 19:55N 27°05' W 042°25'0 0.0 22.6
2015-Jan-25 19:09N 27°05' W 042°25'0 0.0 22.6
2015-Jan-25 17:39N 27°05' W 042°25'1 7.1 22.6
2015-Jan-25 17:33N 27°05' W 042°25'0 0.0 22.6
2015-Jan-25 15:56N 27°05' W 042°25'1 0.5 22.6
2015-Jan-25 14:01N 27°05' W 042°24'1 0.3 22.6
2015-Jan-25 12:18N 27°05' W 042°24'115.4 22.5
2015-Jan-25 12:15N 27°05' W 042°23'0 0.0 22.5
2015-Jan-25 12:12N 27°05' W 042°23'0 0.0 22.5
2015-Jan-25 11:28N 27°05' W 042°23'117.0
2015-Jan-25 11:26N 27°05' W 042°22'0 0.0 22.5
2015-Jan-25 10:17N 27°05' W 042°22'1 0.7 22.5
2015-Jan-25 09:30N 27°05' W 042°22'0 0.0 22.5
2015-Jan-25 09:27N 27°05' W 042°22'1 1.4 22.5
2015-Jan-25 09:04N 27°05' W 042°22'1 1.0 22.5
2015-Jan-25 08:32N 27°05' W 042°22'0 0.0 22.5
2015-Jan-25 07:47N 27°05' W 042°22'0 0.0 22.5
2015-Jan-25 07:23N 27°05' W 042°22'0 0.0 22.5
2015-Jan-25 06:55N 27°05' W 042°22'0 0.3 22.5
2015-Jan-25 06:18N 27°05' W 042°22'0 0.7 22.4
2015-Jan-25 06:09N 27°05' W 042°22'0 0.0 22.4
2015-Jan-25 06:07N 27°05' W 042°22'1 0.4 22.4
2015-Jan-25 04:35N 27°04' W 042°22'0 0.0 22.5
2015-Jan-25 01:33N 27°04' W 042°22'0 0.6 22.5
2015-Jan-25 00:50N 27°04' W 042°22'1 1.0 22.5
2015-Jan-24 23:55N 27°04' W 042°23'1 0.7 22.5
2015-Jan-24 23:09N 27°04' W 042°23'0 0.0 22.5
2015-Jan-24 22:15N 27°04' W 042°23'0 0.0 22.5
2015-Jan-24 22:12N 27°04' W 042°23'0 0.0 22.5
2015-Jan-24 21:54N 27°04' W 042°23'0 0.4 22.5
2015-Jan-24 21:03N 27°03' W 042°23'0 0.2 22.5
2015-Jan-24 20:19N 27°03' W 042°23'0 4.8 22.5
2015-Jan-24 20:16N 27°03' W 042°23'0 0.9 22.5
2015-Jan-24 20:08N 27°03' W 042°23'0 3.7 22.6
2015-Jan-24 20:06N 27°03' W 042°23'0 0.1 22.6
2015-Jan-24 19:26N 27°03' W 042°23'1 9.9 22.6
2015-Jan-24 19:20N 27°03' W 042°24'0 0.0 22.6
2015-Jan-24 18:39N 27°03' W 042°24'1 1.4 22.6
2015-Jan-24 17:48N 27°02' W 042°24'0 0.0 22.6
2015-Jan-24 17:41N 27°02' W 042°24'0 0.0 22.6
2015-Jan-24 16:09N 27°02' W 042°24'0 2.1 22.6
2015-Jan-24 15:58N 27°01' W 042°23'0 0.0 22.6
2015-Jan-24 14:20N 27°01' W 042°23'0 0.0 22.6
2015-Jan-24 13:31N 27°01' W 042°23'0 0.2 22.6
2015-Jan-24 12:37N 27°01' W 042°23'0 0.5 22.5
2015-Jan-24 12:31N 27°01' W 042°23'1 0.9 22.5
2015-Jan-24 11:46N 27°00' W 042°24'1 0.7 22.6
2015-Jan-24 10:53N 27°00' W 042°23'0 0.3
2015-Jan-24 09:41N 27°00' W 042°23'0 3.0 22.5
2015-Jan-24 09:33N 27°00' W 042°23'0 0.9 22.5
2015-Jan-24 09:05N 27°00' W 042°23'0 0.0 22.5
2015-Jan-24 09:02N 27°00' W 042°23'0 7.4 22.5
2015-Jan-24 08:59N 27°01' W 042°23'1 0.7 22.5
2015-Jan-24 08:00N 27°00' W 042°23'0 0.0 22.5
2015-Jan-24 07:55N 27°00' W 042°23'0 0.0 22.5
2015-Jan-24 07:21N 27°00' W 042°23'1 0.8 22.5
2015-Jan-24 06:26N 27°01' W 042°23'2 1.1 22.5
2015-Jan-24 04:46N 26°60' W 042°25'1 0.4 22.5
2015-Jan-24 01:53N 27°00' W 042°24'0 0.0 22.6
2015-Jan-24 01:09N 27°00' W 042°24'128.7 22.6
2015-Jan-24 01:07N 26°59' W 042°24'0 0.0 22.6
2015-Jan-24 00:20N 26°59' W 042°24'1 0.6 22.6
2015-Jan-23 23:30N 26°59' W 042°25'113.2 22.6
2015-Jan-23 23:26N 26°58' W 042°24'0 0.0 22.6
2015-Jan-23 22:37N 26°58' W 042°24'0 0.0 22.6
2015-Jan-23 22:34N 26°58' W 042°24'0 9.0 22.6
2015-Jan-23 22:31N 26°58' W 042°25'0 4.5 22.6
2015-Jan-23 22:25N 26°58' W 042°24'0 0.3 22.6
2015-Jan-23 20:46N 26°58' W 042°25'1 7.7 22.6
2015-Jan-23 20:40N 26°58' W 042°25'0 0.0 22.6
2015-Jan-23 20:36N 26°58' W 042°25'0 0.0 22.6
2015-Jan-23 19:37N 26°58' W 042°25'0 0.0 22.6
2015-Jan-23 19:34N 26°58' W 042°25'0 0.5 22.6
2015-Jan-23 19:04N 26°58' W 042°25'1 5.5 22.6
2015-Jan-23 18:56N 26°57' W 042°25'1 0.9 22.6
2015-Jan-23 17:59N 26°58' W 042°25'0 0.9 22.6
2015-Jan-23 17:55N 26°58' W 042°25'1 0.4 22.6
2015-Jan-23 16:21N 26°57' W 042°26'1 0.4 22.6
2015-Jan-23 14:37N 26°56' W 042°25'0 0.1 22.6
2015-Jan-23 13:54N 26°57' W 042°25'0 0.2 22.6
2015-Jan-23 13:03N 26°57' W 042°25'0 0.9 22.6
2015-Jan-23 12:56N 26°57' W 042°25'0 0.1 22.6
2015-Jan-23 12:10N 26°57' W 042°25'0 3.2 22.6
2015-Jan-23 12:07N 26°56' W 042°25'0 0.0 22.6
2015-Jan-23 11:21N 26°56' W 042°25'0 0.0 22.6
2015-Jan-23 10:04N 26°56' W 042°25'1 1.0 22.6
2015-Jan-23 09:24N 26°57' W 042°24'0 0.3 22.6
2015-Jan-23 08:09N 26°56' W 042°24'0 0.0 22.6
2015-Jan-23 08:04N 26°56' W 042°24'0 0.0 22.6
2015-Jan-23 07:46N 26°56' W 042°24'0 0.0 22.6
2015-Jan-23 06:45N 26°56' W 042°24'0 0.0 22.6
2015-Jan-23 06:40N 26°56' W 042°24'0 4.6 22.6
2015-Jan-23 06:34N 26°56' W 042°25'0 0.1 22.6
2015-Jan-23 04:56N 26°56' W 042°25'0 0.1 22.6
2015-Jan-23 01:29N 26°56' W 042°25'0 0.1 22.6
2015-Jan-23 00:38N 26°56' W 042°25'1 0.7 22.6
2015-Jan-22 23:49N 26°56' W 042°26'1 0.9 22.6
2015-Jan-22 22:54N 26°55' W 042°25'0 0.0 22.6
2015-Jan-22 21:08N 26°55' W 042°25'0 0.0 22.6
2015-Jan-22 19:48N 26°55' W 042°25'0 1.8 22.6
2015-Jan-22 19:33N 26°54' W 042°25'0 0.0 22.6
2015-Jan-22 19:28N 26°54' W 042°25'0 2.8 22.6
2015-Jan-22 19:21N 26°54' W 042°25'0 0.0 22.6
2015-Jan-22 18:10N 26°54' W 042°25'0 0.0 22.6
2015-Jan-22 18:07N 26°54' W 042°25'1 0.9 22.6
2015-Jan-22 16:34N 26°53' W 042°25'1 0.4 22.6
2015-Jan-22 14:49N 26°53' W 042°24'0 0.0 22.6
2015-Jan-22 12:33N 26°53' W 042°24'0 0.5 22.6
2015-Jan-22 11:39N 26°53' W 042°25'112.2 22.6
2015-Jan-22 11:35N 26°53' W 042°24'0 0.0 22.6
2015-Jan-22 09:49N 26°53' W 042°24'1 0.4 22.6
2015-Jan-22 08:23N 26°53' W 042°23'0 4.5 22.6
2015-Jan-22 08:18N 26°52' W 042°23'0 0.0 22.6
2015-Jan-22 08:08N 26°52' W 042°23'0 0.0 22.6
2015-Jan-22 07:17N 26°52' W 042°23'1 1.3 22.6
2015-Jan-22 06:51N 26°53' W 042°23'312.5 22.6
2015-Jan-22 06:39N 26°53' W 042°26'0 0.0 22.6
2015-Jan-22 05:08N 26°53' W 042°26'328.1 22.6
2015-Jan-22 05:02N 26°52' W 042°23'0 0.0 22.6
2015-Jan-22 03:29N 26°52' W 042°23'0 0.0 22.6
2015-Jan-22 00:55N 26°52' W 042°23'1 0.9 22.6
2015-Jan-22 00:12N 26°52' W 042°23'0 1.1 22.6
2015-Jan-22 00:09N 26°52' W 042°23'1 0.7 22.6
2015-Jan-21 23:20N 26°53' W 042°23'1 6.9 22.6
2015-Jan-21 23:14N 26°53' W 042°22'112.7 22.6
2015-Jan-21 23:09N 26°52' W 042°22'0 0.0 22.6
2015-Jan-21 21:48N 26°52' W 042°22'0 0.3 22.6
2015-Jan-21 19:59N 26°52' W 042°21'0 0.0 22.6
2015-Jan-21 19:55N 26°52' W 042°21'   22.6

Dump ship's entire track history